sensor_id;sensor_type;location;lat;lon;timestamp;P1;durP1;ratioP1;P2;durP2;ratioP2
38226;SDS011;24026;49.446;8.576;2023-01-16T00:00:09;114.82;;;102.18;;
38226;SDS011;24026;49.446;8.576;2023-01-16T00:02:30;115.63;;;102.18;;
38226;SDS011;24026;49.446;8.576;2023-01-16T00:04:50;115.32;;;102.07;;
38226;SDS011;24026;49.446;8.576;2023-01-16T00:07:11;113.63;;;99.38;;
38226;SDS011;24026;49.446;8.576;2023-01-16T00:09:31;115.25;;;102.13;;
38226;SDS011;24026;49.446;8.576;2023-01-16T00:11:51;115.35;;;101.68;;
38226;SDS011;24026;49.446;8.576;2023-01-16T00:14:12;115.57;;;102.78;;
38226;SDS011;24026;49.446;8.576;2023-01-16T00:16:32;115.60;;;102.80;;
38226;SDS011;24026;49.446;8.576;2023-01-16T00:18:54;116.32;;;103.53;;
38226;SDS011;24026;49.446;8.576;2023-01-16T00:21:15;115.63;;;100.40;;
38226;SDS011;24026;49.446;8.576;2023-01-16T00:23:35;116.47;;;103.22;;
38226;SDS011;24026;49.446;8.576;2023-01-16T00:25:59;114.95;;;102.25;;
38226;SDS011;24026;49.446;8.576;2023-01-16T00:28:19;114.88;;;101.00;;
38226;SDS011;24026;49.446;8.576;2023-01-16T00:30:40;115.88;;;103.13;;
38226;SDS011;24026;49.446;8.576;2023-01-16T00:33:01;116.10;;;102.47;;
38226;SDS011;24026;49.446;8.576;2023-01-16T00:35:22;116.95;;;104.03;;
38226;SDS011;24026;49.446;8.576;2023-01-16T00:37:43;116.55;;;103.68;;
38226;SDS011;24026;49.446;8.576;2023-01-16T00:40:03;117.15;;;104.35;;
38226;SDS011;24026;49.446;8.576;2023-01-16T00:42:25;116.45;;;102.95;;
38226;SDS011;24026;49.446;8.576;2023-01-16T00:44:47;115.72;;;102.88;;
38226;SDS011;24026;49.446;8.576;2023-01-16T00:47:08;116.38;;;102.57;;
38226;SDS011;24026;49.446;8.576;2023-01-16T00:49:28;116.47;;;103.55;;
38226;SDS011;24026;49.446;8.576;2023-01-16T00:51:48;114.57;;;101.10;;
38226;SDS011;24026;49.446;8.576;2023-01-16T00:54:09;114.80;;;99.18;;
38226;SDS011;24026;49.446;8.576;2023-01-16T00:56:29;115.80;;;103.07;;
38226;SDS011;24026;49.446;8.576;2023-01-16T00:58:50;114.70;;;101.95;;
38226;SDS011;24026;49.446;8.576;2023-01-16T01:01:10;116.00;;;102.20;;
38226;SDS011;24026;49.446;8.576;2023-01-16T01:03:32;116.22;;;103.35;;
38226;SDS011;24026;49.446;8.576;2023-01-16T01:05:52;115.22;;;102.07;;
38226;SDS011;24026;49.446;8.576;2023-01-16T01:08:13;114.97;;;101.65;;
38226;SDS011;24026;49.446;8.576;2023-01-16T01:10:35;115.55;;;102.38;;
38226;SDS011;24026;49.446;8.576;2023-01-16T01:12:56;116.10;;;102.53;;
38226;SDS011;24026;49.446;8.576;2023-01-16T01:15:17;115.82;;;103.00;;
38226;SDS011;24026;49.446;8.576;2023-01-16T01:17:37;115.82;;;100.60;;
38226;SDS011;24026;49.446;8.576;2023-01-16T01:19:58;116.65;;;103.70;;
38226;SDS011;24026;49.446;8.576;2023-01-16T01:22:18;116.53;;;103.28;;
38226;SDS011;24026;49.446;8.576;2023-01-16T01:24:41;116.50;;;103.03;;
38226;SDS011;24026;49.446;8.576;2023-01-16T01:27:02;115.55;;;101.35;;
38226;SDS011;24026;49.446;8.576;2023-01-16T01:29:22;116.07;;;103.28;;
38226;SDS011;24026;49.446;8.576;2023-01-16T01:31:43;115.15;;;101.35;;
38226;SDS011;24026;49.446;8.576;2023-01-16T01:34:03;114.78;;;102.10;;
38226;SDS011;24026;49.446;8.576;2023-01-16T01:36:23;114.47;;;101.50;;
38226;SDS011;24026;49.446;8.576;2023-01-16T01:38:44;115.93;;;102.88;;
38226;SDS011;24026;49.446;8.576;2023-01-16T01:41:06;115.80;;;101.82;;
38226;SDS011;24026;49.446;8.576;2023-01-16T01:46:06;115.20;;;101.78;;
38226;SDS011;24026;49.446;8.576;2023-01-16T01:48:28;116.10;;;101.00;;
38226;SDS011;24026;49.446;8.576;2023-01-16T01:51:02;115.00;;;102.05;;
38226;SDS011;24026;49.446;8.576;2023-01-16T01:56:24;114.30;;;99.88;;
38226;SDS011;24026;49.446;8.576;2023-01-16T01:58:52;115.25;;;102.40;;
38226;SDS011;24026;49.446;8.576;2023-01-16T02:01:16;115.10;;;101.90;;
38226;SDS011;24026;49.446;8.576;2023-01-16T02:03:37;113.97;;;100.28;;
38226;SDS011;24026;49.446;8.576;2023-01-16T02:06:02;115.57;;;102.45;;
38226;SDS011;24026;49.446;8.576;2023-01-16T02:08:29;113.63;;;99.17;;
38226;SDS011;24026;49.446;8.576;2023-01-16T02:13:24;114.38;;;100.68;;
38226;SDS011;24026;49.446;8.576;2023-01-16T02:15:44;116.25;;;102.65;;
38226;SDS011;24026;49.446;8.576;2023-01-16T02:18:24;115.22;;;100.20;;
38226;SDS011;24026;49.446;8.576;2023-01-16T02:21:12;116.43;;;102.82;;
38226;SDS011;24026;49.446;8.576;2023-01-16T02:29:19;114.22;;;99.38;;
38226;SDS011;24026;49.446;8.576;2023-01-16T02:32:02;114.32;;;101.15;;
38226;SDS011;24026;49.446;8.576;2023-01-16T02:35:01;114.00;;;101.07;;
38226;SDS011;24026;49.446;8.576;2023-01-16T02:37:45;114.90;;;99.68;;
38226;SDS011;24026;49.446;8.576;2023-01-16T02:48:12;115.45;;;101.55;;
38226;SDS011;24026;49.446;8.576;2023-01-16T02:53:23;114.47;;;101.28;;
38226;SDS011;24026;49.446;8.576;2023-01-16T02:55:50;116.97;;;102.57;;
38226;SDS011;24026;49.446;8.576;2023-01-16T02:58:14;115.85;;;101.05;;
38226;SDS011;24026;49.446;8.576;2023-01-16T03:00:37;115.30;;;99.93;;
38226;SDS011;24026;49.446;8.576;2023-01-16T03:03:17;116.78;;;101.93;;
38226;SDS011;24026;49.446;8.576;2023-01-16T03:05:54;114.50;;;101.40;;
38226;SDS011;24026;49.446;8.576;2023-01-16T03:08:28;114.13;;;98.20;;
38226;SDS011;24026;49.446;8.576;2023-01-16T03:16:51;114.88;;;101.63;;
38226;SDS011;24026;49.446;8.576;2023-01-16T03:27:05;115.00;;;102.15;;
38226;SDS011;24026;49.446;8.576;2023-01-16T03:32:01;113.80;;;100.97;;
38226;SDS011;24026;49.446;8.576;2023-01-16T03:34:30;114.90;;;101.57;;
38226;SDS011;24026;49.446;8.576;2023-01-16T03:36:56;113.28;;;99.45;;
38226;SDS011;24026;49.446;8.576;2023-01-16T03:39:22;115.50;;;102.35;;
38226;SDS011;24026;49.446;8.576;2023-01-16T03:41:53;114.05;;;101.15;;
38226;SDS011;24026;49.446;8.576;2023-01-16T03:44:26;115.93;;;101.20;;
38226;SDS011;24026;49.446;8.576;2023-01-16T03:46:50;115.85;;;102.30;;
38226;SDS011;24026;49.446;8.576;2023-01-16T03:49:11;115.57;;;102.78;;
38226;SDS011;24026;49.446;8.576;2023-01-16T03:51:38;114.63;;;100.38;;
38226;SDS011;24026;49.446;8.576;2023-01-16T03:56:53;113.85;;;97.75;;
38226;SDS011;24026;49.446;8.576;2023-01-16T03:59:23;117.00;;;102.10;;
38226;SDS011;24026;49.446;8.576;2023-01-16T04:01:55;116.50;;;102.70;;
38226;SDS011;24026;49.446;8.576;2023-01-16T04:04:25;115.03;;;101.40;;
38226;SDS011;24026;49.446;8.576;2023-01-16T04:06:53;114.32;;;100.97;;
38226;SDS011;24026;49.446;8.576;2023-01-16T04:11:49;114.55;;;101.90;;
38226;SDS011;24026;49.446;8.576;2023-01-16T04:14:11;115.80;;;103.03;;
38226;SDS011;24026;49.446;8.576;2023-01-16T04:16:34;115.05;;;101.28;;
38226;SDS011;24026;49.446;8.576;2023-01-16T04:18:56;115.43;;;102.43;;
38226;SDS011;24026;49.446;8.576;2023-01-16T04:21:18;116.00;;;102.82;;
38226;SDS011;24026;49.446;8.576;2023-01-16T04:23:39;114.95;;;102.28;;
38226;SDS011;24026;49.446;8.576;2023-01-16T04:25:59;114.32;;;100.00;;
38226;SDS011;24026;49.446;8.576;2023-01-16T04:28:20;115.97;;;103.18;;
38226;SDS011;24026;49.446;8.576;2023-01-16T04:30:40;113.82;;;99.85;;
38226;SDS011;24026;49.446;8.576;2023-01-16T04:33:01;115.28;;;102.53;;
38226;SDS011;24026;49.446;8.576;2023-01-16T04:35:22;115.93;;;102.57;;
38226;SDS011;24026;49.446;8.576;2023-01-16T04:37:43;116.90;;;103.95;;
38226;SDS011;24026;49.446;8.576;2023-01-16T04:40:03;114.90;;;102.05;;
38226;SDS011;24026;49.446;8.576;2023-01-16T04:42:24;114.05;;;101.47;;
38226;SDS011;24026;49.446;8.576;2023-01-16T04:44:45;115.57;;;102.32;;
38226;SDS011;24026;49.446;8.576;2023-01-16T04:47:06;116.03;;;103.30;;
38226;SDS011;24026;49.446;8.576;2023-01-16T04:49:26;115.85;;;101.70;;
38226;SDS011;24026;49.446;8.576;2023-01-16T04:51:46;115.68;;;102.07;;
38226;SDS011;24026;49.446;8.576;2023-01-16T04:54:08;114.95;;;102.30;;
38226;SDS011;24026;49.446;8.576;2023-01-16T04:56:33;114.93;;;101.80;;
38226;SDS011;24026;49.446;8.576;2023-01-16T04:58:54;116.55;;;103.70;;
38226;SDS011;24026;49.446;8.576;2023-01-16T05:01:14;117.38;;;103.90;;
38226;SDS011;24026;49.446;8.576;2023-01-16T05:03:35;115.30;;;102.60;;
38226;SDS011;24026;49.446;8.576;2023-01-16T05:05:55;115.78;;;101.60;;
38226;SDS011;24026;49.446;8.576;2023-01-16T05:08:15;114.97;;;102.30;;
38226;SDS011;24026;49.446;8.576;2023-01-16T05:10:36;114.15;;;101.55;;
38226;SDS011;24026;49.446;8.576;2023-01-16T05:12:56;114.55;;;100.78;;
38226;SDS011;24026;49.446;8.576;2023-01-16T05:15:17;114.28;;;100.53;;
38226;SDS011;24026;49.446;8.576;2023-01-16T05:17:37;115.03;;;102.32;;
38226;SDS011;24026;49.446;8.576;2023-01-16T05:19:57;115.68;;;102.78;;
38226;SDS011;24026;49.446;8.576;2023-01-16T05:22:18;115.57;;;102.88;;
38226;SDS011;24026;49.446;8.576;2023-01-16T05:24:38;116.50;;;102.80;;
38226;SDS011;24026;49.446;8.576;2023-01-16T05:26:59;115.70;;;102.88;;
38226;SDS011;24026;49.446;8.576;2023-01-16T05:29:19;116.10;;;103.13;;
38226;SDS011;24026;49.446;8.576;2023-01-16T05:31:39;114.70;;;101.38;;
38226;SDS011;24026;49.446;8.576;2023-01-16T05:34:00;116.80;;;103.93;;
38226;SDS011;24026;49.446;8.576;2023-01-16T05:36:20;116.30;;;103.35;;
38226;SDS011;24026;49.446;8.576;2023-01-16T05:38:41;116.65;;;103.78;;
38226;SDS011;24026;49.446;8.576;2023-01-16T05:41:01;118.50;;;105.55;;
38226;SDS011;24026;49.446;8.576;2023-01-16T05:43:22;116.20;;;102.88;;
38226;SDS011;24026;49.446;8.576;2023-01-16T05:45:42;115.38;;;102.60;;
38226;SDS011;24026;49.446;8.576;2023-01-16T05:48:03;115.55;;;101.30;;
38226;SDS011;24026;49.446;8.576;2023-01-16T05:50:24;117.03;;;104.13;;
38226;SDS011;24026;49.446;8.576;2023-01-16T05:52:44;117.28;;;104.45;;
38226;SDS011;24026;49.446;8.576;2023-01-16T05:55:05;116.13;;;103.25;;
38226;SDS011;24026;49.446;8.576;2023-01-16T05:57:28;118.50;;;105.57;;
38226;SDS011;24026;49.446;8.576;2023-01-16T05:59:50;116.72;;;103.88;;
38226;SDS011;24026;49.446;8.576;2023-01-16T06:02:11;118.75;;;105.80;;
38226;SDS011;24026;49.446;8.576;2023-01-16T06:04:32;120.50;;;107.43;;
38226;SDS011;24026;49.446;8.576;2023-01-16T06:06:52;119.00;;;106.10;;
38226;SDS011;24026;49.446;8.576;2023-01-16T06:09:15;118.55;;;104.15;;
38226;SDS011;24026;49.446;8.576;2023-01-16T06:11:37;119.15;;;104.70;;
38226;SDS011;24026;49.446;8.576;2023-01-16T06:13:58;123.10;;;109.60;;
38226;SDS011;24026;49.446;8.576;2023-01-16T06:16:25;131.40;;;117.13;;
38226;SDS011;24026;49.446;8.576;2023-01-16T06:18:46;141.95;;;126.57;;
38226;SDS011;24026;49.446;8.576;2023-01-16T06:21:11;165.88;;;147.73;;
38226;SDS011;24026;49.446;8.576;2023-01-16T06:23:33;188.20;;;163.35;;
38226;SDS011;24026;49.446;8.576;2023-01-16T06:25:55;155.80;;;137.05;;
38226;SDS011;24026;49.446;8.576;2023-01-16T06:28:16;151.60;;;130.82;;
38226;SDS011;24026;49.446;8.576;2023-01-16T06:30:37;142.82;;;114.60;;
38226;SDS011;24026;49.446;8.576;2023-01-16T06:32:59;145.55;;;113.75;;
38226;SDS011;24026;49.446;8.576;2023-01-16T06:35:21;146.57;;;113.13;;
38226;SDS011;24026;49.446;8.576;2023-01-16T06:37:43;331.08;;;296.85;;
38226;SDS011;24026;49.446;8.576;2023-01-16T06:40:07;233.68;;;208.60;;
38226;SDS011;24026;49.446;8.576;2023-01-16T06:42:34;199.13;;;176.52;;
38226;SDS011;24026;49.446;8.576;2023-01-16T06:44:57;162.40;;;142.88;;
38226;SDS011;24026;49.446;8.576;2023-01-16T06:47:19;151.55;;;135.02;;
38226;SDS011;24026;49.446;8.576;2023-01-16T06:49:41;158.20;;;140.75;;
38226;SDS011;24026;49.446;8.576;2023-01-16T06:52:03;155.90;;;138.98;;
38226;SDS011;24026;49.446;8.576;2023-01-16T06:54:24;173.20;;;154.60;;
38226;SDS011;24026;49.446;8.576;2023-01-16T06:56:46;157.50;;;140.43;;
38226;SDS011;24026;49.446;8.576;2023-01-16T06:59:07;149.80;;;133.43;;
38226;SDS011;24026;49.446;8.576;2023-01-16T07:01:28;163.43;;;145.77;;
38226;SDS011;24026;49.446;8.576;2023-01-16T07:03:50;223.32;;;200.40;;
38226;SDS011;24026;49.446;8.576;2023-01-16T07:06:12;206.02;;;184.73;;
38226;SDS011;24026;49.446;8.576;2023-01-16T07:08:34;192.00;;;170.57;;
38226;SDS011;24026;49.446;8.576;2023-01-16T07:10:57;169.85;;;151.30;;
38226;SDS011;24026;49.446;8.576;2023-01-16T07:13:20;154.30;;;136.98;;
38226;SDS011;24026;49.446;8.576;2023-01-16T07:15:48;153.52;;;136.18;;
38226;SDS011;24026;49.446;8.576;2023-01-16T07:18:28;154.02;;;137.13;;
38226;SDS011;24026;49.446;8.576;2023-01-16T07:21:10;158.82;;;131.57;;
38226;SDS011;24026;49.446;8.576;2023-01-16T07:24:26;146.10;;;130.48;;
38226;SDS011;24026;49.446;8.576;2023-01-16T07:26:43;330.60;;;296.88;;
38226;SDS011;24026;49.446;8.576;2023-01-16T07:29:07;412.25;;;371.58;;
38226;SDS011;24026;49.446;8.576;2023-01-16T07:31:29;392.92;;;353.48;;
38226;SDS011;24026;49.446;8.576;2023-01-16T07:33:52;217.15;;;193.85;;
38226;SDS011;24026;49.446;8.576;2023-01-16T07:36:12;226.13;;;201.13;;
38226;SDS011;24026;49.446;8.576;2023-01-16T07:38:33;218.93;;;186.05;;
38226;SDS011;24026;49.446;8.576;2023-01-16T07:40:54;207.23;;;179.40;;
38226;SDS011;24026;49.446;8.576;2023-01-16T07:43:15;254.35;;;228.13;;
38226;SDS011;24026;49.446;8.576;2023-01-16T07:45:37;355.40;;;318.58;;
38226;SDS011;24026;49.446;8.576;2023-01-16T07:47:58;255.48;;;228.90;;
38226;SDS011;24026;49.446;8.576;2023-01-16T07:50:22;231.68;;;206.98;;
38226;SDS011;24026;49.446;8.576;2023-01-16T07:52:43;269.75;;;243.85;;
38226;SDS011;24026;49.446;8.576;2023-01-16T07:55:04;269.60;;;243.90;;
38226;SDS011;24026;49.446;8.576;2023-01-16T07:57:25;243.30;;;218.48;;
38226;SDS011;24026;49.446;8.576;2023-01-16T07:59:47;231.98;;;208.85;;
38226;SDS011;24026;49.446;8.576;2023-01-16T08:02:08;213.75;;;191.98;;
38226;SDS011;24026;49.446;8.576;2023-01-16T08:04:31;200.10;;;179.90;;
38226;SDS011;24026;49.446;8.576;2023-01-16T08:06:52;185.68;;;166.85;;
38226;SDS011;24026;49.446;8.576;2023-01-16T08:09:14;180.48;;;161.05;;
38226;SDS011;24026;49.446;8.576;2023-01-16T08:11:35;176.00;;;157.63;;
38226;SDS011;24026;49.446;8.576;2023-01-16T08:14:17;173.52;;;154.68;;
38226;SDS011;24026;49.446;8.576;2023-01-16T08:16:41;157.85;;;140.90;;
38226;SDS011;24026;49.446;8.576;2023-01-16T08:19:03;161.75;;;144.23;;
38226;SDS011;24026;49.446;8.576;2023-01-16T08:21:25;155.70;;;138.80;;
38226;SDS011;24026;49.446;8.576;2023-01-16T08:23:46;156.48;;;139.68;;
38226;SDS011;24026;49.446;8.576;2023-01-16T08:26:09;153.73;;;136.98;;
38226;SDS011;24026;49.446;8.576;2023-01-16T08:28:30;152.63;;;134.90;;
38226;SDS011;24026;49.446;8.576;2023-01-16T08:30:52;149.80;;;133.60;;
38226;SDS011;24026;49.446;8.576;2023-01-16T08:33:12;150.57;;;134.52;;
38226;SDS011;24026;49.446;8.576;2023-01-16T08:35:34;150.07;;;133.95;;
38226;SDS011;24026;49.446;8.576;2023-01-16T08:37:54;148.77;;;133.15;;
38226;SDS011;24026;49.446;8.576;2023-01-16T08:40:16;150.30;;;134.52;;
38226;SDS011;24026;49.446;8.576;2023-01-16T08:42:42;148.07;;;132.55;;
38226;SDS011;24026;49.446;8.576;2023-01-16T08:45:21;147.23;;;131.60;;
38226;SDS011;24026;49.446;8.576;2023-01-16T08:48:01;148.30;;;130.75;;
38226;SDS011;24026;49.446;8.576;2023-01-16T08:50:41;182.02;;;151.38;;
38226;SDS011;24026;49.446;8.576;2023-01-16T08:53:22;168.18;;;145.90;;
38226;SDS011;24026;49.446;8.576;2023-01-16T08:55:42;165.18;;;143.77;;
38226;SDS011;24026;49.446;8.576;2023-01-16T08:58:02;164.80;;;141.00;;
38226;SDS011;24026;49.446;8.576;2023-01-16T09:00:26;155.95;;;138.80;;
38226;SDS011;24026;49.446;8.576;2023-01-16T09:02:47;149.95;;;133.85;;
38226;SDS011;24026;49.446;8.576;2023-01-16T09:05:10;147.07;;;131.63;;
38226;SDS011;24026;49.446;8.576;2023-01-16T09:07:31;146.20;;;130.60;;
38226;SDS011;24026;49.446;8.576;2023-01-16T09:09:53;144.30;;;128.77;;
38226;SDS011;24026;49.446;8.576;2023-01-16T09:12:15;145.45;;;129.60;;
38226;SDS011;24026;49.446;8.576;2023-01-16T09:14:55;139.75;;;125.05;;
38226;SDS011;24026;49.446;8.576;2023-01-16T09:17:17;138.32;;;123.72;;
38226;SDS011;24026;49.446;8.576;2023-01-16T09:19:38;141.18;;;125.90;;
38226;SDS011;24026;49.446;8.576;2023-01-16T09:22:01;139.50;;;125.03;;
38226;SDS011;24026;49.446;8.576;2023-01-16T09:24:27;140.68;;;125.75;;
38226;SDS011;24026;49.446;8.576;2023-01-16T09:26:49;140.05;;;125.15;;
38226;SDS011;24026;49.446;8.576;2023-01-16T09:29:11;141.60;;;126.18;;
38226;SDS011;24026;49.446;8.576;2023-01-16T09:31:33;140.43;;;125.50;;
38226;SDS011;24026;49.446;8.576;2023-01-16T09:33:54;139.77;;;124.97;;
38226;SDS011;24026;49.446;8.576;2023-01-16T09:36:15;146.25;;;130.82;;
38226;SDS011;24026;49.446;8.576;2023-01-16T09:38:36;195.15;;;174.73;;
38226;SDS011;24026;49.446;8.576;2023-01-16T09:40:58;275.95;;;249.00;;
38226;SDS011;24026;49.446;8.576;2023-01-16T09:48:32;199.60;;;178.75;;
38226;SDS011;24026;49.446;8.576;2023-01-16T09:51:02;166.27;;;148.95;;
38226;SDS011;24026;49.446;8.576;2023-01-16T09:53:34;177.30;;;158.80;;
38226;SDS011;24026;49.446;8.576;2023-01-16T09:56:40;221.93;;;198.25;;
38226;SDS011;24026;49.446;8.576;2023-01-16T10:04:43;177.77;;;158.52;;
38226;SDS011;24026;49.446;8.576;2023-01-16T10:07:18;170.23;;;146.20;;
38226;SDS011;24026;49.446;8.576;2023-01-16T10:21:36;149.73;;;130.25;;
38226;SDS011;24026;49.446;8.576;2023-01-16T10:29:55;148.48;;;131.73;;
38226;SDS011;24026;49.446;8.576;2023-01-16T10:32:26;150.35;;;131.77;;
38226;SDS011;24026;49.446;8.576;2023-01-16T10:35:15;145.80;;;128.10;;
38226;SDS011;24026;49.446;8.576;2023-01-16T10:37:43;154.73;;;134.52;;
38226;SDS011;24026;49.446;8.576;2023-01-16T10:40:14;155.55;;;132.38;;
38226;SDS011;24026;49.446;8.576;2023-01-16T10:42:41;157.38;;;135.35;;
38226;SDS011;24026;49.446;8.576;2023-01-16T10:45:26;161.10;;;138.00;;
38226;SDS011;24026;49.446;8.576;2023-01-16T10:48:10;153.57;;;133.32;;
38226;SDS011;24026;49.446;8.576;2023-01-16T10:50:55;149.73;;;130.10;;
38226;SDS011;24026;49.446;8.576;2023-01-16T10:53:18;147.25;;;131.10;;
38226;SDS011;24026;49.446;8.576;2023-01-16T10:55:41;147.80;;;131.48;;
38226;SDS011;24026;49.446;8.576;2023-01-16T11:00:52;145.52;;;129.57;;
38226;SDS011;24026;49.446;8.576;2023-01-16T11:08:28;148.65;;;129.70;;
38226;SDS011;24026;49.446;8.576;2023-01-16T11:10:50;149.38;;;128.45;;
38226;SDS011;24026;49.446;8.576;2023-01-16T11:13:18;150.57;;;131.85;;
38226;SDS011;24026;49.446;8.576;2023-01-16T11:16:04;147.73;;;131.52;;
38226;SDS011;24026;49.446;8.576;2023-01-16T11:18:57;152.02;;;131.18;;
38226;SDS011;24026;49.446;8.576;2023-01-16T11:21:34;171.43;;;153.43;;
38226;SDS011;24026;49.446;8.576;2023-01-16T11:24:18;188.57;;;169.13;;
38226;SDS011;24026;49.446;8.576;2023-01-16T11:26:45;256.55;;;231.50;;
38226;SDS011;24026;49.446;8.576;2023-01-16T11:29:11;208.50;;;187.70;;
38226;SDS011;24026;49.446;8.576;2023-01-16T11:31:37;191.68;;;171.65;;
38226;SDS011;24026;49.446;8.576;2023-01-16T11:33:59;173.13;;;150.63;;
38226;SDS011;24026;49.446;8.576;2023-01-16T11:36:24;172.27;;;147.43;;
38226;SDS011;24026;49.446;8.576;2023-01-16T11:38:46;162.63;;;144.55;;
38226;SDS011;24026;49.446;8.576;2023-01-16T11:41:08;155.38;;;136.82;;
38226;SDS011;24026;49.446;8.576;2023-01-16T11:43:30;154.35;;;137.55;;
38226;SDS011;24026;49.446;8.576;2023-01-16T11:49:02;153.23;;;136.55;;
38226;SDS011;24026;49.446;8.576;2023-01-16T11:51:33;152.20;;;135.60;;
38226;SDS011;24026;49.446;8.576;2023-01-16T11:53:58;150.57;;;134.48;;
38226;SDS011;24026;49.446;8.576;2023-01-16T11:56:32;150.73;;;134.85;;
38226;SDS011;24026;49.446;8.576;2023-01-16T11:59:09;145.70;;;130.30;;
38226;SDS011;24026;49.446;8.576;2023-01-16T12:04:50;145.15;;;129.30;;
38226;SDS011;24026;49.446;8.576;2023-01-16T12:08:03;176.57;;;131.65;;
38226;SDS011;24026;49.446;8.576;2023-01-16T12:11:02;164.77;;;129.05;;
38226;SDS011;24026;49.446;8.576;2023-01-16T12:13:46;155.30;;;127.55;;
38226;SDS011;24026;49.446;8.576;2023-01-16T12:24:43;159.50;;;131.10;;
38226;SDS011;24026;49.446;8.576;2023-01-16T12:33:05;150.05;;;131.50;;
38226;SDS011;24026;49.446;8.576;2023-01-16T12:35:50;150.63;;;132.13;;
38226;SDS011;24026;49.446;8.576;2023-01-16T12:38:37;145.30;;;128.88;;
38226;SDS011;24026;49.446;8.576;2023-01-16T12:41:22;154.88;;;132.73;;
38226;SDS011;24026;49.446;8.576;2023-01-16T12:44:26;149.98;;;133.73;;
38226;SDS011;24026;49.446;8.576;2023-01-16T12:58:50;224.50;;;201.93;;
38226;SDS011;24026;49.446;8.576;2023-01-16T13:01:25;196.90;;;176.57;;
38226;SDS011;24026;49.446;8.576;2023-01-16T13:06:46;190.40;;;170.50;;
38226;SDS011;24026;49.446;8.576;2023-01-16T13:09:14;189.23;;;169.25;;
38226;SDS011;24026;49.446;8.576;2023-01-16T13:14:56;182.23;;;162.93;;
38226;SDS011;24026;49.446;8.576;2023-01-16T13:17:22;187.13;;;166.75;;
38226;SDS011;24026;49.446;8.576;2023-01-16T13:19:47;172.05;;;153.88;;
38226;SDS011;24026;49.446;8.576;2023-01-16T13:24:46;168.75;;;151.23;;
38226;SDS011;24026;49.446;8.576;2023-01-16T13:27:47;167.25;;;150.35;;
38226;SDS011;24026;49.446;8.576;2023-01-16T13:30:27;167.30;;;150.00;;
38226;SDS011;24026;49.446;8.576;2023-01-16T13:32:58;165.48;;;148.07;;
38226;SDS011;24026;49.446;8.576;2023-01-16T13:35:25;158.93;;;142.32;;
38226;SDS011;24026;49.446;8.576;2023-01-16T13:40:50;155.07;;;139.18;;
38226;SDS011;24026;49.446;8.576;2023-01-16T13:43:33;154.05;;;137.98;;
38226;SDS011;24026;49.446;8.576;2023-01-16T13:46:34;151.68;;;135.98;;
38226;SDS011;24026;49.446;8.576;2023-01-16T13:48:59;153.60;;;137.88;;
38226;SDS011;24026;49.446;8.576;2023-01-16T13:51:22;153.57;;;137.77;;
38226;SDS011;24026;49.446;8.576;2023-01-16T13:54:04;155.63;;;138.98;;
38226;SDS011;24026;49.446;8.576;2023-01-16T13:57:02;150.77;;;134.80;;
38226;SDS011;24026;49.446;8.576;2023-01-16T14:01:56;160.40;;;143.98;;
38226;SDS011;24026;49.446;8.576;2023-01-16T14:06:49;156.43;;;140.43;;
38226;SDS011;24026;49.446;8.576;2023-01-16T14:09:18;158.07;;;141.77;;
38226;SDS011;24026;49.446;8.576;2023-01-16T14:17:13;162.77;;;144.05;;
38226;SDS011;24026;49.446;8.576;2023-01-16T14:19:55;164.23;;;141.55;;
38226;SDS011;24026;49.446;8.576;2023-01-16T14:22:24;156.55;;;139.77;;
38226;SDS011;24026;49.446;8.576;2023-01-16T14:24:53;155.52;;;139.48;;
38226;SDS011;24026;49.446;8.576;2023-01-16T14:27:21;154.00;;;138.25;;
38226;SDS011;24026;49.446;8.576;2023-01-16T14:29:52;151.20;;;135.13;;
38226;SDS011;24026;49.446;8.576;2023-01-16T14:32:24;152.55;;;135.98;;
38226;SDS011;24026;49.446;8.576;2023-01-16T14:34:51;149.82;;;134.10;;
38226;SDS011;24026;49.446;8.576;2023-01-16T14:40:20;151.43;;;135.43;;
38226;SDS011;24026;49.446;8.576;2023-01-16T14:43:07;160.85;;;143.10;;
38226;SDS011;24026;49.446;8.576;2023-01-16T14:46:13;153.93;;;136.95;;
38226;SDS011;24026;49.446;8.576;2023-01-16T14:52:46;152.10;;;135.98;;
38226;SDS011;24026;49.446;8.576;2023-01-16T14:55:52;151.18;;;135.02;;
38226;SDS011;24026;49.446;8.576;2023-01-16T14:58:38;151.63;;;135.35;;
38226;SDS011;24026;49.446;8.576;2023-01-16T15:01:05;154.43;;;138.10;;
38226;SDS011;24026;49.446;8.576;2023-01-16T15:03:52;153.05;;;137.10;;
38226;SDS011;24026;49.446;8.576;2023-01-16T15:06:13;155.55;;;138.70;;
38226;SDS011;24026;49.446;8.576;2023-01-16T15:08:36;162.52;;;135.77;;
38226;SDS011;24026;49.446;8.576;2023-01-16T15:11:07;151.82;;;135.23;;
38226;SDS011;24026;49.446;8.576;2023-01-16T15:16:46;146.85;;;131.23;;
38226;SDS011;24026;49.446;8.576;2023-01-16T15:19:25;147.07;;;131.13;;
38226;SDS011;24026;49.446;8.576;2023-01-16T15:22:04;148.13;;;132.13;;
38226;SDS011;24026;49.446;8.576;2023-01-16T15:24:38;147.63;;;132.05;;
38226;SDS011;24026;49.446;8.576;2023-01-16T15:27:19;147.45;;;131.75;;
38226;SDS011;24026;49.446;8.576;2023-01-16T15:29:51;146.98;;;131.50;;
38226;SDS011;24026;49.446;8.576;2023-01-16T15:35:38;144.48;;;129.02;;
38226;SDS011;24026;49.446;8.576;2023-01-16T15:38:01;145.63;;;130.02;;
38226;SDS011;24026;49.446;8.576;2023-01-16T15:40:24;149.25;;;131.40;;
38226;SDS011;24026;49.446;8.576;2023-01-16T15:42:47;142.35;;;126.88;;
38226;SDS011;24026;49.446;8.576;2023-01-16T15:45:27;142.88;;;127.53;;
38226;SDS011;24026;49.446;8.576;2023-01-16T15:51:06;139.30;;;124.50;;
38226;SDS011;24026;49.446;8.576;2023-01-16T15:53:37;141.98;;;126.53;;
38226;SDS011;24026;49.446;8.576;2023-01-16T15:56:04;138.95;;;123.88;;
38226;SDS011;24026;49.446;8.576;2023-01-16T15:58:27;140.07;;;125.10;;
38226;SDS011;24026;49.446;8.576;2023-01-16T16:03:55;139.15;;;124.13;;
38226;SDS011;24026;49.446;8.576;2023-01-16T16:06:18;141.90;;;126.57;;
38226;SDS011;24026;49.446;8.576;2023-01-16T16:08:50;139.18;;;124.15;;
38226;SDS011;24026;49.446;8.576;2023-01-16T16:11:21;137.95;;;123.05;;
38226;SDS011;24026;49.446;8.576;2023-01-16T16:14:06;136.30;;;121.50;;
38226;SDS011;24026;49.446;8.576;2023-01-16T16:19:45;135.38;;;118.70;;
38226;SDS011;24026;49.446;8.576;2023-01-16T16:22:08;136.82;;;122.13;;
38226;SDS011;24026;49.446;8.576;2023-01-16T16:24:50;136.35;;;120.53;;
38226;SDS011;24026;49.446;8.576;2023-01-16T16:27:11;134.07;;;119.70;;
38226;SDS011;24026;49.446;8.576;2023-01-16T16:29:35;134.02;;;119.70;;
38226;SDS011;24026;49.446;8.576;2023-01-16T16:31:59;133.40;;;119.00;;
38226;SDS011;24026;49.446;8.576;2023-01-16T16:34:23;133.53;;;119.33;;